sensor_id;sensor_type;location;lat;lon;timestamp;P1;durP1;ratioP1;P2;durP2;ratioP2
63738;SDS011;68816;45.558;10.070;2023-07-09T00:02:10;10.48;;;7.30;;
63738;SDS011;68816;45.558;10.070;2023-07-09T00:04:36;11.88;;;6.13;;
63738;SDS011;68816;45.558;10.070;2023-07-09T00:07:02;8.98;;;6.20;;
63738;SDS011;68816;45.558;10.070;2023-07-09T00:09:29;9.73;;;6.53;;
63738;SDS011;68816;45.558;10.070;2023-07-09T00:11:55;11.40;;;6.60;;
63738;SDS011;68816;45.558;10.070;2023-07-09T00:14:21;14.15;;;6.72;;
63738;SDS011;68816;45.558;10.070;2023-07-09T00:16:46;10.80;;;6.50;;
63738;SDS011;68816;45.558;10.070;2023-07-09T00:19:19;9.90;;;6.60;;
63738;SDS011;68816;45.558;10.070;2023-07-09T00:21:49;11.80;;;6.85;;
63738;SDS011;68816;45.558;10.070;2023-07-09T00:24:18;10.18;;;6.90;;
63738;SDS011;68816;45.558;10.070;2023-07-09T00:26:43;9.07;;;6.97;;
63738;SDS011;68816;45.558;10.070;2023-07-09T00:29:12;11.15;;;6.90;;
63738;SDS011;68816;45.558;10.070;2023-07-09T00:31:38;10.25;;;7.00;;
63738;SDS011;68816;45.558;10.070;2023-07-09T00:34:08;8.65;;;6.50;;
63738;SDS011;68816;45.558;10.070;2023-07-09T00:36:37;14.82;;;6.82;;
63738;SDS011;68816;45.558;10.070;2023-07-09T00:39:02;10.95;;;6.88;;
63738;SDS011;68816;45.558;10.070;2023-07-09T00:41:36;12.38;;;6.65;;
63738;SDS011;68816;45.558;10.070;2023-07-09T00:44:35;10.80;;;6.30;;
63738;SDS011;68816;45.558;10.070;2023-07-09T00:51:55;10.40;;;7.32;;
63738;SDS011;68816;45.558;10.070;2023-07-09T00:54:37;11.50;;;6.50;;
63738;SDS011;68816;45.558;10.070;2023-07-09T00:57:11;11.20;;;6.82;;
63738;SDS011;68816;45.558;10.070;2023-07-09T00:59:43;10.55;;;7.20;;
63738;SDS011;68816;45.558;10.070;2023-07-09T01:02:13;9.98;;;6.88;;
63738;SDS011;68816;45.558;10.070;2023-07-09T01:04:39;9.10;;;6.70;;
63738;SDS011;68816;45.558;10.070;2023-07-09T01:07:05;9.93;;;6.35;;
63738;SDS011;68816;45.558;10.070;2023-07-09T01:09:31;9.93;;;6.82;;
63738;SDS011;68816;45.558;10.070;2023-07-09T01:12:01;9.55;;;6.53;;
63738;SDS011;68816;45.558;10.070;2023-07-09T01:14:30;9.55;;;6.60;;
63738;SDS011;68816;45.558;10.070;2023-07-09T01:16:58;9.95;;;6.63;;
63738;SDS011;68816;45.558;10.070;2023-07-09T01:19:28;12.50;;;6.55;;
63738;SDS011;68816;45.558;10.070;2023-07-09T01:21:56;11.23;;;7.32;;
63738;SDS011;68816;45.558;10.070;2023-07-09T01:27:32;11.40;;;7.53;;
63738;SDS011;68816;45.558;10.070;2023-07-09T01:30:02;10.40;;;7.47;;
63738;SDS011;68816;45.558;10.070;2023-07-09T01:32:48;10.63;;;7.93;;
63738;SDS011;68816;45.558;10.070;2023-07-09T01:35:15;12.00;;;8.40;;
63738;SDS011;68816;45.558;10.070;2023-07-09T01:37:42;12.70;;;8.05;;
63738;SDS011;68816;45.558;10.070;2023-07-09T01:40:09;13.75;;;7.72;;
63738;SDS011;68816;45.558;10.070;2023-07-09T01:42:36;11.60;;;7.53;;
63738;SDS011;68816;45.558;10.070;2023-07-09T01:45:05;12.88;;;8.48;;
63738;SDS011;68816;45.558;10.070;2023-07-09T01:47:35;13.65;;;8.88;;
63738;SDS011;68816;45.558;10.070;2023-07-09T01:50:01;13.98;;;8.80;;
63738;SDS011;68816;45.558;10.070;2023-07-09T01:52:28;13.02;;;9.38;;
63738;SDS011;68816;45.558;10.070;2023-07-09T01:54:56;19.02;;;11.32;;
63738;SDS011;68816;45.558;10.070;2023-07-09T01:57:23;14.52;;;9.25;;
63738;SDS011;68816;45.558;10.070;2023-07-09T01:59:51;13.30;;;9.55;;
63738;SDS011;68816;45.558;10.070;2023-07-09T02:02:21;13.77;;;9.00;;
63738;SDS011;68816;45.558;10.070;2023-07-09T02:04:53;12.60;;;8.32;;
63738;SDS011;68816;45.558;10.070;2023-07-09T02:07:21;12.82;;;7.90;;
63738;SDS011;68816;45.558;10.070;2023-07-09T02:09:48;12.65;;;7.13;;
63738;SDS011;68816;45.558;10.070;2023-07-09T02:12:14;15.55;;;8.10;;
63738;SDS011;68816;45.558;10.070;2023-07-09T02:14:42;16.63;;;8.50;;
63738;SDS011;68816;45.558;10.070;2023-07-09T02:17:09;14.70;;;8.02;;
63738;SDS011;68816;45.558;10.070;2023-07-09T02:19:36;16.13;;;8.07;;
63738;SDS011;68816;45.558;10.070;2023-07-09T02:22:01;12.65;;;7.88;;
63738;SDS011;68816;45.558;10.070;2023-07-09T02:24:27;14.75;;;7.82;;
63738;SDS011;68816;45.558;10.070;2023-07-09T02:26:56;11.02;;;7.78;;
63738;SDS011;68816;45.558;10.070;2023-07-09T02:29:23;13.02;;;8.18;;
63738;SDS011;68816;45.558;10.070;2023-07-09T02:31:50;14.15;;;8.30;;
63738;SDS011;68816;45.558;10.070;2023-07-09T02:34:17;12.15;;;8.43;;
63738;SDS011;68816;45.558;10.070;2023-07-09T02:36:43;10.13;;;7.82;;
63738;SDS011;68816;45.558;10.070;2023-07-09T02:39:10;11.20;;;7.90;;
63738;SDS011;68816;45.558;10.070;2023-07-09T02:41:38;12.82;;;7.90;;
63738;SDS011;68816;45.558;10.070;2023-07-09T02:44:07;12.95;;;8.05;;
63738;SDS011;68816;45.558;10.070;2023-07-09T02:46:33;13.35;;;8.02;;
63738;SDS011;68816;45.558;10.070;2023-07-09T02:48:59;13.10;;;8.20;;
63738;SDS011;68816;45.558;10.070;2023-07-09T02:51:25;15.60;;;8.32;;
63738;SDS011;68816;45.558;10.070;2023-07-09T02:53:52;15.00;;;8.45;;
63738;SDS011;68816;45.558;10.070;2023-07-09T02:56:19;15.25;;;8.13;;
63738;SDS011;68816;45.558;10.070;2023-07-09T02:58:45;11.10;;;7.97;;
63738;SDS011;68816;45.558;10.070;2023-07-09T03:01:10;13.10;;;8.38;;
63738;SDS011;68816;45.558;10.070;2023-07-09T03:03:37;12.98;;;8.10;;
63738;SDS011;68816;45.558;10.070;2023-07-09T03:06:03;11.20;;;7.65;;
63738;SDS011;68816;45.558;10.070;2023-07-09T03:08:29;13.30;;;8.43;;
63738;SDS011;68816;45.558;10.070;2023-07-09T03:10:54;14.50;;;8.45;;
63738;SDS011;68816;45.558;10.070;2023-07-09T03:13:20;12.23;;;8.90;;
63738;SDS011;68816;45.558;10.070;2023-07-09T03:15:53;11.63;;;8.18;;
63738;SDS011;68816;45.558;10.070;2023-07-09T03:18:22;12.60;;;8.70;;
63738;SDS011;68816;45.558;10.070;2023-07-09T03:20:48;12.10;;;8.45;;
63738;SDS011;68816;45.558;10.070;2023-07-09T03:23:13;13.88;;;8.43;;
63738;SDS011;68816;45.558;10.070;2023-07-09T03:25:42;14.27;;;8.27;;
63738;SDS011;68816;45.558;10.070;2023-07-09T03:28:08;12.27;;;8.70;;
63738;SDS011;68816;45.558;10.070;2023-07-09T03:30:34;14.23;;;8.80;;
63738;SDS011;68816;45.558;10.070;2023-07-09T03:33:00;16.15;;;9.35;;
63738;SDS011;68816;45.558;10.070;2023-07-09T03:35:25;13.95;;;9.10;;
63738;SDS011;68816;45.558;10.070;2023-07-09T03:37:51;12.80;;;9.57;;
63738;SDS011;68816;45.558;10.070;2023-07-09T03:40:23;12.80;;;8.88;;
63738;SDS011;68816;45.558;10.070;2023-07-09T03:42:49;12.77;;;8.35;;
63738;SDS011;68816;45.558;10.070;2023-07-09T03:45:14;12.35;;;8.45;;
63738;SDS011;68816;45.558;10.070;2023-07-09T03:47:40;12.02;;;8.77;;
63738;SDS011;68816;45.558;10.070;2023-07-09T03:50:09;10.23;;;8.85;;
63738;SDS011;68816;45.558;10.070;2023-07-09T03:52:35;12.02;;;9.15;;
63738;SDS011;68816;45.558;10.070;2023-07-09T03:55:00;13.35;;;9.00;;
63738;SDS011;68816;45.558;10.070;2023-07-09T03:57:29;14.60;;;9.40;;
63738;SDS011;68816;45.558;10.070;2023-07-09T03:59:57;14.52;;;9.25;;
63738;SDS011;68816;45.558;10.070;2023-07-09T04:02:23;12.98;;;9.75;;
63738;SDS011;68816;45.558;10.070;2023-07-09T04:04:48;12.50;;;9.25;;
63738;SDS011;68816;45.558;10.070;2023-07-09T04:07:14;13.15;;;8.93;;
63738;SDS011;68816;45.558;10.070;2023-07-09T04:09:40;13.38;;;8.60;;
63738;SDS011;68816;45.558;10.070;2023-07-09T04:12:06;12.48;;;8.02;;
63738;SDS011;68816;45.558;10.070;2023-07-09T04:14:32;13.82;;;9.15;;
63738;SDS011;68816;45.558;10.070;2023-07-09T04:16:57;12.00;;;8.57;;
63738;SDS011;68816;45.558;10.070;2023-07-09T04:19:23;11.18;;;8.82;;
63738;SDS011;68816;45.558;10.070;2023-07-09T04:21:49;13.90;;;9.52;;
63738;SDS011;68816;45.558;10.070;2023-07-09T04:24:17;11.82;;;8.00;;
63738;SDS011;68816;45.558;10.070;2023-07-09T04:26:44;11.70;;;8.30;;
63738;SDS011;68816;45.558;10.070;2023-07-09T04:29:10;14.75;;;7.97;;
63738;SDS011;68816;45.558;10.070;2023-07-09T04:31:37;14.98;;;8.50;;
63738;SDS011;68816;45.558;10.070;2023-07-09T04:34:02;13.73;;;8.45;;
63738;SDS011;68816;45.558;10.070;2023-07-09T04:36:28;14.25;;;8.63;;
63738;SDS011;68816;45.558;10.070;2023-07-09T04:38:54;11.10;;;8.55;;
63738;SDS011;68816;45.558;10.070;2023-07-09T04:41:19;13.35;;;8.65;;
63738;SDS011;68816;45.558;10.070;2023-07-09T04:43:45;11.95;;;8.15;;
63738;SDS011;68816;45.558;10.070;2023-07-09T04:46:10;11.32;;;8.40;;
63738;SDS011;68816;45.558;10.070;2023-07-09T04:48:36;11.43;;;9.15;;
63738;SDS011;68816;45.558;10.070;2023-07-09T04:51:01;16.77;;;8.88;;
63738;SDS011;68816;45.558;10.070;2023-07-09T04:53:27;14.02;;;7.40;;
63738;SDS011;68816;45.558;10.070;2023-07-09T04:55:52;10.63;;;7.60;;
63738;SDS011;68816;45.558;10.070;2023-07-09T04:58:18;11.57;;;7.18;;
63738;SDS011;68816;45.558;10.070;2023-07-09T05:00:44;12.32;;;7.47;;
63738;SDS011;68816;45.558;10.070;2023-07-09T05:03:10;9.05;;;7.53;;
63738;SDS011;68816;45.558;10.070;2023-07-09T05:05:42;11.80;;;7.63;;
63738;SDS011;68816;45.558;10.070;2023-07-09T05:08:14;11.55;;;7.30;;
63738;SDS011;68816;45.558;10.070;2023-07-09T05:10:48;11.85;;;8.00;;
63738;SDS011;68816;45.558;10.070;2023-07-09T05:13:16;10.60;;;7.35;;
63738;SDS011;68816;45.558;10.070;2023-07-09T05:15:43;12.10;;;8.15;;
63738;SDS011;68816;45.558;10.070;2023-07-09T05:18:13;13.93;;;7.97;;
63738;SDS011;68816;45.558;10.070;2023-07-09T05:20:40;10.60;;;7.18;;
63738;SDS011;68816;45.558;10.070;2023-07-09T05:23:06;11.32;;;7.63;;
63738;SDS011;68816;45.558;10.070;2023-07-09T05:25:32;14.82;;;7.90;;
63738;SDS011;68816;45.558;10.070;2023-07-09T05:27:58;12.00;;;8.35;;
63738;SDS011;68816;45.558;10.070;2023-07-09T05:30:23;13.25;;;7.72;;
63738;SDS011;68816;45.558;10.070;2023-07-09T05:32:49;11.20;;;7.15;;
63738;SDS011;68816;45.558;10.070;2023-07-09T05:35:14;12.98;;;7.65;;
63738;SDS011;68816;45.558;10.070;2023-07-09T05:37:40;10.73;;;8.02;;
63738;SDS011;68816;45.558;10.070;2023-07-09T05:40:06;12.57;;;7.47;;
63738;SDS011;68816;45.558;10.070;2023-07-09T05:42:33;11.50;;;7.30;;
63738;SDS011;68816;45.558;10.070;2023-07-09T05:44:59;10.52;;;7.20;;
63738;SDS011;68816;45.558;10.070;2023-07-09T05:47:25;10.57;;;7.65;;
63738;SDS011;68816;45.558;10.070;2023-07-09T05:49:50;15.40;;;7.60;;
63738;SDS011;68816;45.558;10.070;2023-07-09T05:52:17;10.85;;;7.90;;
63738;SDS011;68816;45.558;10.070;2023-07-09T05:54:43;10.52;;;7.15;;
63738;SDS011;68816;45.558;10.070;2023-07-09T05:57:09;11.02;;;7.60;;
63738;SDS011;68816;45.558;10.070;2023-07-09T05:59:35;16.33;;;7.68;;
63738;SDS011;68816;45.558;10.070;2023-07-09T06:02:01;10.13;;;7.05;;
63738;SDS011;68816;45.558;10.070;2023-07-09T06:04:27;9.50;;;7.40;;
63738;SDS011;68816;45.558;10.070;2023-07-09T06:06:53;12.30;;;6.63;;
63738;SDS011;68816;45.558;10.070;2023-07-09T06:09:19;11.25;;;6.82;;
63738;SDS011;68816;45.558;10.070;2023-07-09T06:11:44;10.07;;;6.60;;
63738;SDS011;68816;45.558;10.070;2023-07-09T06:14:09;10.13;;;6.65;;
63738;SDS011;68816;45.558;10.070;2023-07-09T06:16:35;8.32;;;6.05;;
63738;SDS011;68816;45.558;10.070;2023-07-09T06:19:02;8.93;;;6.43;;
63738;SDS011;68816;45.558;10.070;2023-07-09T06:21:27;8.73;;;6.63;;
63738;SDS011;68816;45.558;10.070;2023-07-09T06:23:53;14.70;;;6.13;;
63738;SDS011;68816;45.558;10.070;2023-07-09T06:26:18;8.15;;;5.75;;
63738;SDS011;68816;45.558;10.070;2023-07-09T06:28:44;9.60;;;5.47;;
63738;SDS011;68816;45.558;10.070;2023-07-09T06:31:10;8.32;;;5.80;;
63738;SDS011;68816;45.558;10.070;2023-07-09T06:33:35;9.18;;;5.80;;
63738;SDS011;68816;45.558;10.070;2023-07-09T06:36:01;8.85;;;5.60;;
63738;SDS011;68816;45.558;10.070;2023-07-09T06:38:27;8.68;;;5.90;;
63738;SDS011;68816;45.558;10.070;2023-07-09T06:40:54;9.48;;;5.88;;
63738;SDS011;68816;45.558;10.070;2023-07-09T06:43:20;8.10;;;5.75;;
63738;SDS011;68816;45.558;10.070;2023-07-09T06:45:50;10.45;;;6.22;;
63738;SDS011;68816;45.558;10.070;2023-07-09T06:48:19;9.60;;;6.25;;
63738;SDS011;68816;45.558;10.070;2023-07-09T06:50:45;9.00;;;5.90;;
63738;SDS011;68816;45.558;10.070;2023-07-09T06:53:11;9.55;;;5.97;;
63738;SDS011;68816;45.558;10.070;2023-07-09T06:55:36;10.65;;;5.60;;
63738;SDS011;68816;45.558;10.070;2023-07-09T06:58:02;11.90;;;6.05;;
63738;SDS011;68816;45.558;10.070;2023-07-09T07:00:27;9.00;;;5.88;;
63738;SDS011;68816;45.558;10.070;2023-07-09T07:02:53;7.28;;;5.43;;
63738;SDS011;68816;45.558;10.070;2023-07-09T07:05:19;8.02;;;5.68;;
63738;SDS011;68816;45.558;10.070;2023-07-09T07:07:44;11.73;;;5.85;;
63738;SDS011;68816;45.558;10.070;2023-07-09T07:10:10;8.45;;;6.03;;
63738;SDS011;68816;45.558;10.070;2023-07-09T07:12:46;9.73;;;6.10;;
63738;SDS011;68816;45.558;10.070;2023-07-09T07:15:14;8.25;;;5.60;;
63738;SDS011;68816;45.558;10.070;2023-07-09T07:17:41;8.18;;;6.03;;
63738;SDS011;68816;45.558;10.070;2023-07-09T07:20:08;8.15;;;6.15;;
63738;SDS011;68816;45.558;10.070;2023-07-09T07:22:34;8.98;;;6.35;;
63738;SDS011;68816;45.558;10.070;2023-07-09T07:25:01;9.95;;;5.97;;
63738;SDS011;68816;45.558;10.070;2023-07-09T07:27:26;8.95;;;5.90;;
63738;SDS011;68816;45.558;10.070;2023-07-09T07:29:51;9.63;;;6.10;;
63738;SDS011;68816;45.558;10.070;2023-07-09T07:32:17;8.55;;;5.43;;
63738;SDS011;68816;45.558;10.070;2023-07-09T07:34:42;9.40;;;5.93;;
63738;SDS011;68816;45.558;10.070;2023-07-09T07:37:08;6.82;;;5.38;;
63738;SDS011;68816;45.558;10.070;2023-07-09T07:39:33;10.57;;;6.05;;
63738;SDS011;68816;45.558;10.070;2023-07-09T07:41:59;9.05;;;6.10;;
63738;SDS011;68816;45.558;10.070;2023-07-09T07:44:24;8.38;;;5.82;;
63738;SDS011;68816;45.558;10.070;2023-07-09T07:46:50;10.65;;;6.60;;
63738;SDS011;68816;45.558;10.070;2023-07-09T07:49:15;8.07;;;5.97;;
63738;SDS011;68816;45.558;10.070;2023-07-09T07:51:41;8.93;;;5.93;;
63738;SDS011;68816;45.558;10.070;2023-07-09T07:54:06;10.00;;;6.28;;
63738;SDS011;68816;45.558;10.070;2023-07-09T07:56:35;11.00;;;6.10;;
63738;SDS011;68816;45.558;10.070;2023-07-09T07:59:01;8.90;;;6.05;;
63738;SDS011;68816;45.558;10.070;2023-07-09T08:01:27;13.60;;;6.55;;
63738;SDS011;68816;45.558;10.070;2023-07-09T08:03:53;11.50;;;6.65;;
63738;SDS011;68816;45.558;10.070;2023-07-09T08:06:18;8.13;;;6.22;;
63738;SDS011;68816;45.558;10.070;2023-07-09T08:08:44;11.38;;;6.32;;
63738;SDS011;68816;45.558;10.070;2023-07-09T08:11:09;8.45;;;6.07;;
63738;SDS011;68816;45.558;10.070;2023-07-09T08:13:35;11.63;;;7.03;;
63738;SDS011;68816;45.558;10.070;2023-07-09T08:16:01;8.82;;;6.32;;
63738;SDS011;68816;45.558;10.070;2023-07-09T08:18:27;9.85;;;6.13;;
63738;SDS011;68816;45.558;10.070;2023-07-09T08:20:52;12.35;;;6.63;;
63738;SDS011;68816;45.558;10.070;2023-07-09T08:23:18;9.88;;;6.47;;
63738;SDS011;68816;45.558;10.070;2023-07-09T08:25:44;10.98;;;6.22;;
63738;SDS011;68816;45.558;10.070;2023-07-09T08:28:09;8.65;;;6.70;;
63738;SDS011;68816;45.558;10.070;2023-07-09T08:30:35;8.60;;;6.75;;
63738;SDS011;68816;45.558;10.070;2023-07-09T08:33:01;9.80;;;6.07;;
63738;SDS011;68816;45.558;10.070;2023-07-09T08:35:26;10.77;;;6.53;;
63738;SDS011;68816;45.558;10.070;2023-07-09T08:37:52;11.85;;;6.72;;
63738;SDS011;68816;45.558;10.070;2023-07-09T08:40:17;12.23;;;6.90;;
63738;SDS011;68816;45.558;10.070;2023-07-09T08:42:44;11.40;;;6.70;;
63738;SDS011;68816;45.558;10.070;2023-07-09T08:50:59;8.98;;;6.90;;
63738;SDS011;68816;45.558;10.070;2023-07-09T08:53:44;9.18;;;6.93;;
63738;SDS011;68816;45.558;10.070;2023-07-09T08:56:15;12.55;;;6.78;;
63738;SDS011;68816;45.558;10.070;2023-07-09T08:58:42;10.70;;;6.85;;
63738;SDS011;68816;45.558;10.070;2023-07-09T09:01:14;10.38;;;6.72;;
63738;SDS011;68816;45.558;10.070;2023-07-09T09:03:46;10.57;;;6.38;;
63738;SDS011;68816;45.558;10.070;2023-07-09T09:06:19;12.10;;;6.32;;
63738;SDS011;68816;45.558;10.070;2023-07-09T09:09:31;9.23;;;6.78;;
63738;SDS011;68816;45.558;10.070;2023-07-09T09:14:30;8.50;;;6.85;;
63738;SDS011;68816;45.558;10.070;2023-07-09T09:16:59;12.52;;;7.38;;
63738;SDS011;68816;45.558;10.070;2023-07-09T09:19:27;11.82;;;7.55;;
63738;SDS011;68816;45.558;10.070;2023-07-09T09:22:04;11.00;;;7.50;;
63738;SDS011;68816;45.558;10.070;2023-07-09T09:27:22;11.10;;;8.27;;
63738;SDS011;68816;45.558;10.070;2023-07-09T09:29:48;7.97;;;6.57;;
63738;SDS011;68816;45.558;10.070;2023-07-09T09:32:18;10.95;;;7.00;;
63738;SDS011;68816;45.558;10.070;2023-07-09T09:34:47;12.23;;;8.18;;
63738;SDS011;68816;45.558;10.070;2023-07-09T09:37:15;10.43;;;7.85;;
63738;SDS011;68816;45.558;10.070;2023-07-09T09:39:51;9.07;;;7.18;;
63738;SDS011;68816;45.558;10.070;2023-07-09T09:42:16;12.32;;;7.30;;
63738;SDS011;68816;45.558;10.070;2023-07-09T09:44:43;10.73;;;7.05;;
63738;SDS011;68816;45.558;10.070;2023-07-09T09:47:12;11.73;;;7.32;;
63738;SDS011;68816;45.558;10.070;2023-07-09T09:49:42;12.20;;;7.18;;
63738;SDS011;68816;45.558;10.070;2023-07-09T09:52:14;10.25;;;7.10;;
63738;SDS011;68816;45.558;10.070;2023-07-09T09:55:09;10.52;;;7.78;;
63738;SDS011;68816;45.558;10.070;2023-07-09T09:57:35;10.13;;;7.38;;
63738;SDS011;68816;45.558;10.070;2023-07-09T10:00:01;10.98;;;7.35;;
63738;SDS011;68816;45.558;10.070;2023-07-09T10:02:27;10.88;;;7.68;;
63738;SDS011;68816;45.558;10.070;2023-07-09T10:04:52;11.55;;;7.50;;
63738;SDS011;68816;45.558;10.070;2023-07-09T10:07:23;13.25;;;7.85;;
63738;SDS011;68816;45.558;10.070;2023-07-09T10:09:55;12.50;;;7.57;;
63738;SDS011;68816;45.558;10.070;2023-07-09T10:28:33;12.05;;;8.88;;
63738;SDS011;68816;45.558;10.070;2023-07-09T10:39:22;12.05;;;7.95;;
63738;SDS011;68816;45.558;10.070;2023-07-09T10:41:54;11.82;;;8.27;;
63738;SDS011;68816;45.558;10.070;2023-07-09T10:44:38;14.07;;;8.50;;
63738;SDS011;68816;45.558;10.070;2023-07-09T10:47:53;11.35;;;8.57;;
63738;SDS011;68816;45.558;10.070;2023-07-09T10:50:26;11.45;;;7.63;;
63738;SDS011;68816;45.558;10.070;2023-07-09T10:52:57;14.95;;;8.07;;
63738;SDS011;68816;45.558;10.070;2023-07-09T11:00:47;12.70;;;8.57;;
63738;SDS011;68816;45.558;10.070;2023-07-09T11:03:24;9.30;;;6.90;;
63738;SDS011;68816;45.558;10.070;2023-07-09T11:06:13;12.25;;;7.32;;
63738;SDS011;68816;45.558;10.070;2023-07-09T11:08:45;10.20;;;7.43;;
63738;SDS011;68816;45.558;10.070;2023-07-09T11:11:33;10.32;;;6.85;;
63738;SDS011;68816;45.558;10.070;2023-07-09T11:14:09;8.85;;;6.53;;
63738;SDS011;68816;45.558;10.070;2023-07-09T11:16:45;13.82;;;7.40;;
63738;SDS011;68816;45.558;10.070;2023-07-09T11:19:15;10.40;;;7.50;;
63738;SDS011;68816;45.558;10.070;2023-07-09T11:24:47;10.00;;;7.20;;
63738;SDS011;68816;45.558;10.070;2023-07-09T11:27:21;12.98;;;7.93;;
63738;SDS011;68816;45.558;10.070;2023-07-09T11:29:59;9.48;;;7.22;;
63738;SDS011;68816;45.558;10.070;2023-07-09T11:32:26;10.25;;;7.90;;
63738;SDS011;68816;45.558;10.070;2023-07-09T11:34:53;10.88;;;8.10;;
63738;SDS011;68816;45.558;10.070;2023-07-09T11:37:19;10.43;;;7.40;;
63738;SDS011;68816;45.558;10.070;2023-07-09T11:39:49;8.15;;;7.13;;
63738;SDS011;68816;45.558;10.070;2023-07-09T11:45:20;10.65;;;6.72;;
63738;SDS011;68816;45.558;10.070;2023-07-09T11:50:52;10.70;;;7.90;;
63738;SDS011;68816;45.558;10.070;2023-07-09T11:56:19;10.80;;;8.32;;
63738;SDS011;68816;45.558;10.070;2023-07-09T11:58:52;12.02;;;7.45;;
63738;SDS011;68816;45.558;10.070;2023-07-09T12:01:22;12.75;;;7.45;;
63738;SDS011;68816;45.558;10.070;2023-07-09T12:03:51;12.70;;;7.50;;
63738;SDS011;68816;45.558;10.070;2023-07-09T12:06:23;11.07;;;7.22;;
63738;SDS011;68816;45.558;10.070;2023-07-09T12:08:51;10.40;;;6.75;;
63738;SDS011;68816;45.558;10.070;2023-07-09T12:11:42;10.65;;;7.13;;
63738;SDS011;68816;45.558;10.070;2023-07-09T12:14:16;9.63;;;7.28;;
63738;SDS011;68816;45.558;10.070;2023-07-09T12:16:45;11.35;;;7.40;;
63738;SDS011;68816;45.558;10.070;2023-07-09T12:19:16;8.95;;;7.22;;
63738;SDS011;68816;45.558;10.070;2023-07-09T12:21:45;11.30;;;8.10;;
63738;SDS011;68816;45.558;10.070;2023-07-09T12:24:36;11.10;;;6.75;;
63738;SDS011;68816;45.558;10.070;2023-07-09T12:27:17;11.07;;;7.57;;
63738;SDS011;68816;45.558;10.070;2023-07-09T12:29:42;10.32;;;6.88;;
63738;SDS011;68816;45.558;10.070;2023-07-09T12:32:11;9.73;;;7.63;;
63738;SDS011;68816;45.558;10.070;2023-07-09T12:34:38;11.15;;;7.25;;
63738;SDS011;68816;45.558;10.070;2023-07-09T12:37:04;13.15;;;7.25;;
63738;SDS011;68816;45.558;10.070;2023-07-09T12:39:30;10.32;;;6.43;;
63738;SDS011;68816;45.558;10.070;2023-07-09T12:42:01;7.95;;;7.13;;
63738;SDS011;68816;45.558;10.070;2023-07-09T12:44:29;9.00;;;6.97;;
63738;SDS011;68816;45.558;10.070;2023-07-09T12:46:58;10.35;;;7.30;;
63738;SDS011;68816;45.558;10.070;2023-07-09T12:49:25;10.02;;;7.20;;
63738;SDS011;68816;45.558;10.070;2023-07-09T12:51:58;25.30;;;7.80;;
63738;SDS011;68816;45.558;10.070;2023-07-09T12:54:28;10.45;;;7.40;;
63738;SDS011;68816;45.558;10.070;2023-07-09T12:56:55;13.23;;;7.28;;
63738;SDS011;68816;45.558;10.070;2023-07-09T12:59:22;9.90;;;7.30;;
63738;SDS011;68816;45.558;10.070;2023-07-09T13:01:59;10.95;;;7.60;;
63738;SDS011;68816;45.558;10.070;2023-07-09T13:04:28;10.05;;;6.50;;
63738;SDS011;68816;45.558;10.070;2023-07-09T13:06:57;9.35;;;6.90;;
63738;SDS011;68816;45.558;10.070;2023-07-09T13:09:25;10.32;;;7.18;;
63738;SDS011;68816;45.558;10.070;2023-07-09T13:11:51;10.07;;;7.10;;
63738;SDS011;68816;45.558;10.070;2023-07-09T13:14:35;14.32;;;7.45;;
63738;SDS011;68816;45.558;10.070;2023-07-09T13:17:07;9.18;;;6.35;;
63738;SDS011;68816;45.558;10.070;2023-07-09T13:19:34;7.78;;;6.28;;
63738;SDS011;68816;45.558;10.070;2023-07-09T13:22:00;8.15;;;6.18;;
63738;SDS011;68816;45.558;10.070;2023-07-09T13:24:30;8.82;;;6.22;;
63738;SDS011;68816;45.558;10.070;2023-07-09T13:26:59;10.23;;;6.47;;
63738;SDS011;68816;45.558;10.070;2023-07-09T13:29:26;7.72;;;5.93;;
63738;SDS011;68816;45.558;10.070;2023-07-09T13:31:52;10.32;;;6.60;;
63738;SDS011;68816;45.558;10.070;2023-07-09T13:34:23;9.30;;;6.10;;
63738;SDS011;68816;45.558;10.070;2023-07-09T13:36:50;9.20;;;6.30;;
63738;SDS011;68816;45.558;10.070;2023-07-09T13:39:16;10.27;;;7.15;;
63738;SDS011;68816;45.558;10.070;2023-07-09T13:41:43;9.13;;;7.47;;
63738;SDS011;68816;45.558;10.070;2023-07-09T13:44:23;9.32;;;7.05;;
63738;SDS011;68816;45.558;10.070;2023-07-09T13:46:52;9.52;;;6.68;;
63738;SDS011;68816;45.558;10.070;2023-07-09T13:49:19;9.90;;;6.35;;
63738;SDS011;68816;45.558;10.070;2023-07-09T13:51:47;7.75;;;6.25;;
63738;SDS011;68816;45.558;10.070;2023-07-09T13:56:45;12.05;;;6.80;;
63738;SDS011;68816;45.558;10.070;2023-07-09T13:59:12;11.77;;;7.28;;
63738;SDS011;68816;45.558;10.070;2023-07-09T14:01:42;8.73;;;6.47;;
63738;SDS011;68816;45.558;10.070;2023-07-09T14:04:09;9.18;;;6.70;;
63738;SDS011;68816;45.558;10.070;2023-07-09T14:06:36;10.93;;;6.50;;
63738;SDS011;68816;45.558;10.070;2023-07-09T14:09:02;8.05;;;6.70;;
63738;SDS011;68816;45.558;10.070;2023-07-09T14:11:28;8.95;;;6.78;;
63738;SDS011;68816;45.558;10.070;2023-07-09T14:13:54;12.65;;;7.38;;
63738;SDS011;68816;45.558;10.070;2023-07-09T14:16:20;11.02;;;6.47;;
63738;SDS011;68816;45.558;10.070;2023-07-09T14:18:46;9.60;;;6.57;;
63738;SDS011;68816;45.558;10.070;2023-07-09T14:21:12;9.57;;;6.50;;
63738;SDS011;68816;45.558;10.070;2023-07-09T14:23:40;9.40;;;6.82;;
63738;SDS011;68816;45.558;10.070;2023-07-09T14:26:06;10.05;;;6.68;;
63738;SDS011;68816;45.558;10.070;2023-07-09T14:28:34;10.38;;;6.60;;
63738;SDS011;68816;45.558;10.070;2023-07-09T14:31:01;9.05;;;6.68;;
63738;SDS011;68816;45.558;10.070;2023-07-09T14:33:27;8.30;;;6.32;;
63738;SDS011;68816;45.558;10.070;2023-07-09T14:35:52;9.10;;;5.88;;
63738;SDS011;68816;45.558;10.070;2023-07-09T14:38:22;7.75;;;6.25;;
63738;SDS011;68816;45.558;10.070;2023-07-09T14:40:52;8.80;;;6.75;;
63738;SDS011;68816;45.558;10.070;2023-07-09T14:43:20;13.70;;;6.82;;
63738;SDS011;68816;45.558;10.070;2023-07-09T14:45:46;9.82;;;6.45;;
63738;SDS011;68816;45.558;10.070;2023-07-09T14:48:13;9.70;;;6.22;;
63738;SDS011;68816;45.558;10.070;2023-07-09T14:50:40;6.47;;;5.30;;
63738;SDS011;68816;45.558;10.070;2023-07-09T14:53:40;8.98;;;6.10;;
63738;SDS011;68816;45.558;10.070;2023-07-09T14:55:59;8.45;;;6.47;;
63738;SDS011;68816;45.558;10.070;2023-07-09T14:58:24;10.88;;;6.82;;
63738;SDS011;68816;45.558;10.070;2023-07-09T15:00:50;8.48;;;7.13;;
63738;SDS011;68816;45.558;10.070;2023-07-09T15:03:20;7.72;;;6.47;;
63738;SDS011;68816;45.558;10.070;2023-07-09T15:05:47;7.93;;;6.22;;
63738;SDS011;68816;45.558;10.070;2023-07-09T15:08:15;7.75;;;5.97;;
63738;SDS011;68816;45.558;10.070;2023-07-09T15:10:43;11.25;;;6.40;;
63738;SDS011;68816;45.558;10.070;2023-07-09T15:13:17;8.60;;;6.35;;
63738;SDS011;68816;45.558;10.070;2023-07-09T15:15:45;7.88;;;6.10;;
63738;SDS011;68816;45.558;10.070;2023-07-09T15:18:12;10.05;;;5.93;;
63738;SDS011;68816;45.558;10.070;2023-07-09T15:20:47;12.25;;;6.43;;
63738;SDS011;68816;45.558;10.070;2023-07-09T15:23:24;7.25;;;5.68;;
63738;SDS011;68816;45.558;10.070;2023-07-09T15:25:50;7.53;;;6.40;;
63738;SDS011;68816;45.558;10.070;2023-07-09T15:28:16;10.82;;;6.38;;
63738;SDS011;68816;45.558;10.070;2023-07-09T15:30:42;8.80;;;6.00;;
63738;SDS011;68816;45.558;10.070;2023-07-09T15:33:11;7.22;;;6.15;;
63738;SDS011;68816;45.558;10.070;2023-07-09T15:35:40;9.48;;;5.93;;
63738;SDS011;68816;45.558;10.070;2023-07-09T15:38:27;8.23;;;6.13;;